Terminal Aerodrome Forecast
Issued by NWS

Home | Current Version | Previous Version | Text Only | Print | Product List | Glossary On
Versions: 1 2 3 4 5 6 7 8 9 10 11 12 13 14 15 16 17 18 19 20
000
FTUS41 KPHI 300521
TAFPNE
TAF
KPNE 300521Z 3006/3106 19005KT P6SM BKN250
     FM300800 17004KT 6SM BR SCT015
     FM301000 17004KT 3SM BR BKN012
     FM301400 20007KT P6SM SCT025
     FM301600 20010G18KT P6SM SCT050
     FM310000 20008KT P6SM SCT060 BKN120=

USA.gov is the U.S. government's official web portal to all federal, state and local government web resources and services.